sensor_id;sensor_type;location;lat;lon;timestamp;P1;durP1;ratioP1;P2;durP2;ratioP2
10343;SDS011;5217;43.960;10.954;2023-07-30T00:02:00;3.03;;;2.70;;
10343;SDS011;5217;43.960;10.954;2023-07-30T00:04:29;3.05;;;2.75;;
10343;SDS011;5217;43.960;10.954;2023-07-30T00:06:57;3.22;;;2.92;;
10343;SDS011;5217;43.960;10.954;2023-07-30T00:09:25;2.75;;;2.55;;
10343;SDS011;5217;43.960;10.954;2023-07-30T00:11:54;2.80;;;2.50;;
10343;SDS011;5217;43.960;10.954;2023-07-30T00:14:23;3.30;;;2.58;;
10343;SDS011;5217;43.960;10.954;2023-07-30T00:16:52;3.03;;;2.70;;
10343;SDS011;5217;43.960;10.954;2023-07-30T00:19:20;3.22;;;2.67;;
10343;SDS011;5217;43.960;10.954;2023-07-30T00:21:48;3.58;;;2.72;;
10343;SDS011;5217;43.960;10.954;2023-07-30T00:24:17;2.83;;;2.63;;
10343;SDS011;5217;43.960;10.954;2023-07-30T00:26:45;3.13;;;2.83;;
10343;SDS011;5217;43.960;10.954;2023-07-30T00:29:14;3.17;;;2.60;;
10343;SDS011;5217;43.960;10.954;2023-07-30T00:31:43;3.00;;;2.65;;
10343;SDS011;5217;43.960;10.954;2023-07-30T00:34:12;3.28;;;2.67;;
10343;SDS011;5217;43.960;10.954;2023-07-30T00:36:40;3.05;;;2.65;;
10343;SDS011;5217;43.960;10.954;2023-07-30T00:39:08;3.15;;;2.60;;
10343;SDS011;5217;43.960;10.954;2023-07-30T00:41:38;3.10;;;2.70;;
10343;SDS011;5217;43.960;10.954;2023-07-30T00:44:06;3.10;;;2.70;;
10343;SDS011;5217;43.960;10.954;2023-07-30T00:46:35;3.35;;;2.47;;
10343;SDS011;5217;43.960;10.954;2023-07-30T00:49:05;3.22;;;2.90;;
10343;SDS011;5217;43.960;10.954;2023-07-30T00:51:33;2.70;;;2.40;;
10343;SDS011;5217;43.960;10.954;2023-07-30T00:54:03;2.70;;;2.50;;
10343;SDS011;5217;43.960;10.954;2023-07-30T00:56:31;4.50;;;2.80;;
10343;SDS011;5217;43.960;10.954;2023-07-30T00:59:00;3.03;;;2.60;;
10343;SDS011;5217;43.960;10.954;2023-07-30T01:01:28;3.70;;;2.80;;
10343;SDS011;5217;43.960;10.954;2023-07-30T01:04:01;2.70;;;2.50;;
10343;SDS011;5217;43.960;10.954;2023-07-30T01:06:32;3.58;;;2.53;;
10343;SDS011;5217;43.960;10.954;2023-07-30T01:09:01;3.00;;;2.70;;
10343;SDS011;5217;43.960;10.954;2023-07-30T01:11:29;3.47;;;2.42;;
10343;SDS011;5217;43.960;10.954;2023-07-30T01:13:58;2.65;;;2.42;;
10343;SDS011;5217;43.960;10.954;2023-07-30T01:16:27;2.80;;;2.50;;
10343;SDS011;5217;43.960;10.954;2023-07-30T01:18:56;2.95;;;2.60;;
10343;SDS011;5217;43.960;10.954;2023-07-30T01:21:26;4.22;;;2.60;;
10343;SDS011;5217;43.960;10.954;2023-07-30T01:23:55;4.75;;;2.80;;
10343;SDS011;5217;43.960;10.954;2023-07-30T01:26:24;3.47;;;2.83;;
10343;SDS011;5217;43.960;10.954;2023-07-30T01:28:56;5.05;;;2.78;;
10343;SDS011;5217;43.960;10.954;2023-07-30T01:31:29;3.10;;;2.42;;
10343;SDS011;5217;43.960;10.954;2023-07-30T01:34:02;2.80;;;2.60;;
10343;SDS011;5217;43.960;10.954;2023-07-30T01:36:33;3.13;;;2.70;;
10343;SDS011;5217;43.960;10.954;2023-07-30T01:39:02;3.47;;;2.83;;
10343;SDS011;5217;43.960;10.954;2023-07-30T01:41:31;3.47;;;2.70;;
10343;SDS011;5217;43.960;10.954;2023-07-30T01:44:00;2.75;;;2.40;;
10343;SDS011;5217;43.960;10.954;2023-07-30T01:46:28;2.90;;;2.60;;
10343;SDS011;5217;43.960;10.954;2023-07-30T01:48:56;2.72;;;2.50;;
10343;SDS011;5217;43.960;10.954;2023-07-30T01:51:25;3.05;;;2.47;;
10343;SDS011;5217;43.960;10.954;2023-07-30T01:53:54;2.65;;;2.33;;
10343;SDS011;5217;43.960;10.954;2023-07-30T01:56:23;2.45;;;2.25;;
10343;SDS011;5217;43.960;10.954;2023-07-30T01:58:51;3.10;;;2.50;;
10343;SDS011;5217;43.960;10.954;2023-07-30T02:01:20;2.90;;;2.50;;
10343;SDS011;5217;43.960;10.954;2023-07-30T02:03:48;2.65;;;2.40;;
10343;SDS011;5217;43.960;10.954;2023-07-30T02:06:17;4.30;;;2.55;;
10343;SDS011;5217;43.960;10.954;2023-07-30T02:08:45;3.13;;;2.83;;
10343;SDS011;5217;43.960;10.954;2023-07-30T02:11:15;3.88;;;2.55;;
10343;SDS011;5217;43.960;10.954;2023-07-30T02:13:43;2.58;;;2.30;;
10343;SDS011;5217;43.960;10.954;2023-07-30T02:16:12;3.35;;;2.47;;
10343;SDS011;5217;43.960;10.954;2023-07-30T02:18:40;2.75;;;2.53;;
10343;SDS011;5217;43.960;10.954;2023-07-30T02:21:08;3.13;;;2.40;;
10343;SDS011;5217;43.960;10.954;2023-07-30T02:23:37;3.42;;;2.38;;
10343;SDS011;5217;43.960;10.954;2023-07-30T02:26:05;2.83;;;2.50;;
10343;SDS011;5217;43.960;10.954;2023-07-30T02:28:35;2.75;;;2.50;;
10343;SDS011;5217;43.960;10.954;2023-07-30T02:31:03;3.97;;;2.80;;
10343;SDS011;5217;43.960;10.954;2023-07-30T02:33:32;2.83;;;2.55;;
10343;SDS011;5217;43.960;10.954;2023-07-30T02:36:00;4.18;;;2.70;;
10343;SDS011;5217;43.960;10.954;2023-07-30T02:38:29;3.05;;;2.75;;
10343;SDS011;5217;43.960;10.954;2023-07-30T02:40:57;4.10;;;2.50;;
10343;SDS011;5217;43.960;10.954;2023-07-30T02:43:26;3.25;;;2.70;;
10343;SDS011;5217;43.960;10.954;2023-07-30T02:45:55;3.35;;;2.70;;
10343;SDS011;5217;43.960;10.954;2023-07-30T02:48:24;2.95;;;2.47;;
10343;SDS011;5217;43.960;10.954;2023-07-30T02:50:52;2.42;;;2.22;;
10343;SDS011;5217;43.960;10.954;2023-07-30T02:53:20;3.08;;;2.72;;
10343;SDS011;5217;43.960;10.954;2023-07-30T02:55:49;3.88;;;2.92;;
10343;SDS011;5217;43.960;10.954;2023-07-30T02:58:17;2.92;;;2.47;;
10343;SDS011;5217;43.960;10.954;2023-07-30T03:00:46;2.95;;;2.58;;
10343;SDS011;5217;43.960;10.954;2023-07-30T03:03:16;2.88;;;2.67;;
10343;SDS011;5217;43.960;10.954;2023-07-30T03:05:45;2.90;;;2.47;;
10343;SDS011;5217;43.960;10.954;2023-07-30T03:08:13;3.22;;;2.67;;
10343;SDS011;5217;43.960;10.954;2023-07-30T03:10:42;2.85;;;2.53;;
10343;SDS011;5217;43.960;10.954;2023-07-30T03:13:10;3.05;;;2.75;;
10343;SDS011;5217;43.960;10.954;2023-07-30T03:15:39;3.65;;;2.78;;
10343;SDS011;5217;43.960;10.954;2023-07-30T03:18:07;3.38;;;2.53;;
10343;SDS011;5217;43.960;10.954;2023-07-30T03:20:37;3.45;;;2.70;;
10343;SDS011;5217;43.960;10.954;2023-07-30T03:23:05;2.92;;;2.63;;
10343;SDS011;5217;43.960;10.954;2023-07-30T03:25:34;2.85;;;2.50;;
10343;SDS011;5217;43.960;10.954;2023-07-30T03:28:02;7.13;;;2.60;;
10343;SDS011;5217;43.960;10.954;2023-07-30T03:30:31;2.53;;;2.33;;
10343;SDS011;5217;43.960;10.954;2023-07-30T03:33:00;3.03;;;2.70;;
10343;SDS011;5217;43.960;10.954;2023-07-30T03:35:28;2.40;;;2.20;;
10343;SDS011;5217;43.960;10.954;2023-07-30T03:37:58;3.08;;;2.63;;
10343;SDS011;5217;43.960;10.954;2023-07-30T03:40:26;3.67;;;2.90;;
10343;SDS011;5217;43.960;10.954;2023-07-30T03:42:56;3.58;;;2.75;;
10343;SDS011;5217;43.960;10.954;2023-07-30T03:45:24;3.33;;;2.72;;
10343;SDS011;5217;43.960;10.954;2023-07-30T03:47:53;4.00;;;2.50;;
10343;SDS011;5217;43.960;10.954;2023-07-30T03:50:21;3.40;;;2.85;;
10343;SDS011;5217;43.960;10.954;2023-07-30T03:52:50;3.47;;;2.88;;
10343;SDS011;5217;43.960;10.954;2023-07-30T03:55:19;3.10;;;2.80;;
10343;SDS011;5217;43.960;10.954;2023-07-30T03:57:48;3.33;;;2.72;;
10343;SDS011;5217;43.960;10.954;2023-07-30T04:00:16;4.30;;;3.03;;
10343;SDS011;5217;43.960;10.954;2023-07-30T04:02:45;3.70;;;3.00;;
10343;SDS011;5217;43.960;10.954;2023-07-30T04:05:13;3.15;;;2.67;;
10343;SDS011;5217;43.960;10.954;2023-07-30T04:07:42;2.97;;;2.67;;
10343;SDS011;5217;43.960;10.954;2023-07-30T04:10:10;2.58;;;2.38;;
10343;SDS011;5217;43.960;10.954;2023-07-30T04:12:40;3.22;;;2.50;;
10343;SDS011;5217;43.960;10.954;2023-07-30T04:15:09;2.92;;;2.70;;
10343;SDS011;5217;43.960;10.954;2023-07-30T04:17:37;3.72;;;2.80;;
10343;SDS011;5217;43.960;10.954;2023-07-30T04:20:06;4.28;;;2.63;;
10343;SDS011;5217;43.960;10.954;2023-07-30T04:22:35;3.30;;;2.72;;
10343;SDS011;5217;43.960;10.954;2023-07-30T04:25:05;3.17;;;2.80;;
10343;SDS011;5217;43.960;10.954;2023-07-30T04:27:34;3.42;;;2.50;;
10343;SDS011;5217;43.960;10.954;2023-07-30T04:30:04;3.42;;;2.40;;
10343;SDS011;5217;43.960;10.954;2023-07-30T04:32:33;3.33;;;2.70;;
10343;SDS011;5217;43.960;10.954;2023-07-30T04:35:05;2.70;;;2.50;;
10343;SDS011;5217;43.960;10.954;2023-07-30T04:37:34;2.83;;;2.28;;
10343;SDS011;5217;43.960;10.954;2023-07-30T04:40:03;2.60;;;2.40;;
10343;SDS011;5217;43.960;10.954;2023-07-30T04:42:32;2.72;;;2.50;;
10343;SDS011;5217;43.960;10.954;2023-07-30T04:45:00;2.80;;;2.60;;
10343;SDS011;5217;43.960;10.954;2023-07-30T04:47:30;3.25;;;2.50;;
10343;SDS011;5217;43.960;10.954;2023-07-30T04:49:59;4.32;;;2.50;;
10343;SDS011;5217;43.960;10.954;2023-07-30T04:52:27;3.08;;;2.47;;
10343;SDS011;5217;43.960;10.954;2023-07-30T04:54:56;2.42;;;2.22;;
10343;SDS011;5217;43.960;10.954;2023-07-30T04:57:24;4.53;;;2.63;;
10343;SDS011;5217;43.960;10.954;2023-07-30T04:59:53;3.28;;;2.38;;
10343;SDS011;5217;43.960;10.954;2023-07-30T05:02:21;2.92;;;2.20;;
10343;SDS011;5217;43.960;10.954;2023-07-30T05:04:51;2.97;;;2.40;;
10343;SDS011;5217;43.960;10.954;2023-07-30T05:07:20;3.70;;;2.90;;
10343;SDS011;5217;43.960;10.954;2023-07-30T05:09:48;2.80;;;2.60;;
10343;SDS011;5217;43.960;10.954;2023-07-30T05:12:17;2.50;;;2.30;;
10343;SDS011;5217;43.960;10.954;2023-07-30T05:14:45;2.60;;;2.40;;
10343;SDS011;5217;43.960;10.954;2023-07-30T05:17:14;2.67;;;2.30;;
10343;SDS011;5217;43.960;10.954;2023-07-30T05:19:42;2.60;;;2.40;;
10343;SDS011;5217;43.960;10.954;2023-07-30T05:22:12;2.55;;;2.35;;
10343;SDS011;5217;43.960;10.954;2023-07-30T05:24:40;2.85;;;2.55;;
10343;SDS011;5217;43.960;10.954;2023-07-30T05:27:09;3.55;;;2.80;;
10343;SDS011;5217;43.960;10.954;2023-07-30T05:29:37;3.05;;;2.70;;
10343;SDS011;5217;43.960;10.954;2023-07-30T05:32:06;3.85;;;2.80;;
10343;SDS011;5217;43.960;10.954;2023-07-30T05:34:37;3.78;;;2.65;;
10343;SDS011;5217;43.960;10.954;2023-07-30T05:37:05;3.10;;;2.80;;
10343;SDS011;5217;43.960;10.954;2023-07-30T05:39:35;4.03;;;3.10;;
10343;SDS011;5217;43.960;10.954;2023-07-30T05:42:04;4.00;;;2.90;;
10343;SDS011;5217;43.960;10.954;2023-07-30T05:44:32;3.15;;;2.90;;
10343;SDS011;5217;43.960;10.954;2023-07-30T05:47:00;3.22;;;2.90;;
10343;SDS011;5217;43.960;10.954;2023-07-30T05:49:29;3.88;;;3.08;;
10343;SDS011;5217;43.960;10.954;2023-07-30T05:51:57;3.35;;;2.97;;
10343;SDS011;5217;43.960;10.954;2023-07-30T05:54:26;4.40;;;2.92;;
10343;SDS011;5217;43.960;10.954;2023-07-30T05:56:56;3.50;;;2.83;;
10343;SDS011;5217;43.960;10.954;2023-07-30T05:59:24;3.33;;;2.97;;
10343;SDS011;5217;43.960;10.954;2023-07-30T06:01:52;3.50;;;3.20;;
10343;SDS011;5217;43.960;10.954;2023-07-30T06:04:23;3.13;;;2.83;;
10343;SDS011;5217;43.960;10.954;2023-07-30T06:06:51;3.90;;;2.78;;
10343;SDS011;5217;43.960;10.954;2023-07-30T06:09:20;4.10;;;3.15;;
10343;SDS011;5217;43.960;10.954;2023-07-30T06:11:48;3.63;;;3.25;;
10343;SDS011;5217;43.960;10.954;2023-07-30T06:14:18;4.20;;;3.00;;
10343;SDS011;5217;43.960;10.954;2023-07-30T06:16:46;4.13;;;3.30;;
10343;SDS011;5217;43.960;10.954;2023-07-30T06:19:15;4.00;;;3.17;;
10343;SDS011;5217;43.960;10.954;2023-07-30T06:21:43;3.33;;;3.03;;
10343;SDS011;5217;43.960;10.954;2023-07-30T06:24:12;3.53;;;3.15;;
10343;SDS011;5217;43.960;10.954;2023-07-30T06:26:40;4.55;;;3.22;;
10343;SDS011;5217;43.960;10.954;2023-07-30T06:29:09;4.10;;;3.15;;
10343;SDS011;5217;43.960;10.954;2023-07-30T06:31:38;4.00;;;3.17;;
10343;SDS011;5217;43.960;10.954;2023-07-30T06:34:07;3.53;;;3.22;;
10343;SDS011;5217;43.960;10.954;2023-07-30T06:36:36;4.15;;;3.10;;
10343;SDS011;5217;43.960;10.954;2023-07-30T06:39:04;3.42;;;3.00;;
10343;SDS011;5217;43.960;10.954;2023-07-30T06:41:33;3.40;;;3.10;;
10343;SDS011;5217;43.960;10.954;2023-07-30T06:44:02;4.53;;;3.15;;
10343;SDS011;5217;43.960;10.954;2023-07-30T06:46:30;4.13;;;3.47;;
10343;SDS011;5217;43.960;10.954;2023-07-30T06:49:00;3.67;;;3.20;;
10343;SDS011;5217;43.960;10.954;2023-07-30T06:51:29;4.22;;;3.40;;
10343;SDS011;5217;43.960;10.954;2023-07-30T06:53:57;4.65;;;3.20;;
10343;SDS011;5217;43.960;10.954;2023-07-30T06:56:26;3.28;;;2.85;;
10343;SDS011;5217;43.960;10.954;2023-07-30T06:58:55;4.70;;;2.90;;
10343;SDS011;5217;43.960;10.954;2023-07-30T07:01:24;3.38;;;3.08;;
10343;SDS011;5217;43.960;10.954;2023-07-30T07:03:52;4.35;;;3.25;;
10343;SDS011;5217;43.960;10.954;2023-07-30T07:06:22;4.88;;;3.60;;
10343;SDS011;5217;43.960;10.954;2023-07-30T07:08:51;3.50;;;2.90;;
10343;SDS011;5217;43.960;10.954;2023-07-30T07:11:19;5.22;;;3.20;;
10343;SDS011;5217;43.960;10.954;2023-07-30T07:13:48;4.43;;;3.35;;
10343;SDS011;5217;43.960;10.954;2023-07-30T07:16:16;3.83;;;3.40;;
10343;SDS011;5217;43.960;10.954;2023-07-30T07:18:45;4.15;;;3.17;;
10343;SDS011;5217;43.960;10.954;2023-07-30T07:21:15;4.63;;;3.47;;
10343;SDS011;5217;43.960;10.954;2023-07-30T07:23:45;5.05;;;3.35;;
10343;SDS011;5217;43.960;10.954;2023-07-30T07:26:13;3.22;;;2.92;;
10343;SDS011;5217;43.960;10.954;2023-07-30T07:28:42;3.53;;;3.13;;
10343;SDS011;5217;43.960;10.954;2023-07-30T07:31:10;5.57;;;3.40;;
10343;SDS011;5217;43.960;10.954;2023-07-30T07:33:39;3.95;;;3.08;;
10343;SDS011;5217;43.960;10.954;2023-07-30T07:36:08;4.32;;;3.28;;
10343;SDS011;5217;43.960;10.954;2023-07-30T07:38:36;4.95;;;3.10;;
10343;SDS011;5217;43.960;10.954;2023-07-30T07:41:06;4.45;;;3.10;;
10343;SDS011;5217;43.960;10.954;2023-07-30T07:43:35;3.63;;;2.95;;
10343;SDS011;5217;43.960;10.954;2023-07-30T07:46:03;4.88;;;3.30;;
10343;SDS011;5217;43.960;10.954;2023-07-30T07:48:36;3.13;;;2.83;;
10343;SDS011;5217;43.960;10.954;2023-07-30T07:51:05;3.88;;;3.08;;
10343;SDS011;5217;43.960;10.954;2023-07-30T07:53:33;4.30;;;2.78;;
10343;SDS011;5217;43.960;10.954;2023-07-30T07:56:03;3.50;;;3.20;;
10343;SDS011;5217;43.960;10.954;2023-07-30T07:58:33;5.70;;;2.92;;
10343;SDS011;5217;43.960;10.954;2023-07-30T08:01:02;2.92;;;2.60;;
10343;SDS011;5217;43.960;10.954;2023-07-30T08:03:31;4.25;;;2.72;;
10343;SDS011;5217;43.960;10.954;2023-07-30T08:05:59;3.83;;;2.53;;
10343;SDS011;5217;43.960;10.954;2023-07-30T08:08:28;2.97;;;2.60;;
10343;SDS011;5217;43.960;10.954;2023-07-30T08:10:56;3.55;;;2.67;;
10343;SDS011;5217;43.960;10.954;2023-07-30T08:13:26;5.70;;;3.55;;
10343;SDS011;5217;43.960;10.954;2023-07-30T08:15:54;5.32;;;3.83;;
10343;SDS011;5217;43.960;10.954;2023-07-30T08:18:23;4.53;;;3.70;;
10343;SDS011;5217;43.960;10.954;2023-07-30T08:20:51;5.55;;;3.40;;
10343;SDS011;5217;43.960;10.954;2023-07-30T08:23:20;7.13;;;3.75;;
10343;SDS011;5217;43.960;10.954;2023-07-30T08:25:50;6.63;;;3.75;;
10343;SDS011;5217;43.960;10.954;2023-07-30T08:28:18;5.85;;;4.10;;
10343;SDS011;5217;43.960;10.954;2023-07-30T08:30:48;5.75;;;3.70;;
10343;SDS011;5217;43.960;10.954;2023-07-30T08:33:17;7.45;;;5.40;;
10343;SDS011;5217;43.960;10.954;2023-07-30T08:35:45;6.35;;;4.72;;
10343;SDS011;5217;43.960;10.954;2023-07-30T08:38:15;6.75;;;4.38;;
10343;SDS011;5217;43.960;10.954;2023-07-30T08:40:44;6.25;;;4.88;;
10343;SDS011;5217;43.960;10.954;2023-07-30T08:43:13;5.75;;;4.28;;
10343;SDS011;5217;43.960;10.954;2023-07-30T08:45:41;6.13;;;4.45;;
10343;SDS011;5217;43.960;10.954;2023-07-30T08:48:13;7.45;;;4.93;;
10343;SDS011;5217;43.960;10.954;2023-07-30T08:50:41;6.55;;;4.55;;
10343;SDS011;5217;43.960;10.954;2023-07-30T08:53:13;5.72;;;4.40;;
10343;SDS011;5217;43.960;10.954;2023-07-30T08:55:42;6.45;;;4.05;;
10343;SDS011;5217;43.960;10.954;2023-07-30T08:58:12;6.30;;;4.30;;
10343;SDS011;5217;43.960;10.954;2023-07-30T09:00:41;5.05;;;3.78;;
10343;SDS011;5217;43.960;10.954;2023-07-30T09:03:10;4.82;;;3.60;;
10343;SDS011;5217;43.960;10.954;2023-07-30T09:05:45;6.25;;;3.95;;
10343;SDS011;5217;43.960;10.954;2023-07-30T09:08:14;6.03;;;4.05;;
10343;SDS011;5217;43.960;10.954;2023-07-30T09:10:43;5.25;;;4.00;;
10343;SDS011;5217;43.960;10.954;2023-07-30T09:13:12;5.00;;;3.78;;
10343;SDS011;5217;43.960;10.954;2023-07-30T09:15:49;4.65;;;3.50;;
10343;SDS011;5217;43.960;10.954;2023-07-30T09:18:19;4.93;;;3.50;;
10343;SDS011;5217;43.960;10.954;2023-07-30T09:20:48;4.28;;;3.50;;
10343;SDS011;5217;43.960;10.954;2023-07-30T09:23:17;5.32;;;3.33;;
10343;SDS011;5217;43.960;10.954;2023-07-30T09:25:47;5.22;;;3.70;;
10343;SDS011;5217;43.960;10.954;2023-07-30T09:28:18;5.70;;;3.47;;
10343;SDS011;5217;43.960;10.954;2023-07-30T09:30:48;3.88;;;3.30;;
10343;SDS011;5217;43.960;10.954;2023-07-30T09:33:20;4.07;;;2.90;;
10343;SDS011;5217;43.960;10.954;2023-07-30T09:35:50;3.55;;;2.78;;
10343;SDS011;5217;43.960;10.954;2023-07-30T09:38:20;2.95;;;2.60;;
10343;SDS011;5217;43.960;10.954;2023-07-30T09:40:51;3.22;;;2.70;;
10343;SDS011;5217;43.960;10.954;2023-07-30T09:43:20;3.35;;;2.75;;
10343;SDS011;5217;43.960;10.954;2023-07-30T09:45:57;5.47;;;3.10;;
10343;SDS011;5217;43.960;10.954;2023-07-30T09:48:32;4.72;;;3.30;;
10343;SDS011;5217;43.960;10.954;2023-07-30T09:51:02;4.43;;;2.67;;
10343;SDS011;5217;43.960;10.954;2023-07-30T09:53:32;4.35;;;2.67;;
10343;SDS011;5217;43.960;10.954;2023-07-30T09:56:02;3.97;;;2.90;;
10343;SDS011;5217;43.960;10.954;2023-07-30T09:58:32;3.75;;;2.80;;
10343;SDS011;5217;43.960;10.954;2023-07-30T10:01:03;4.10;;;2.85;;
10343;SDS011;5217;43.960;10.954;2023-07-30T10:03:34;3.20;;;2.63;;
10343;SDS011;5217;43.960;10.954;2023-07-30T10:06:03;4.28;;;2.85;;
10343;SDS011;5217;43.960;10.954;2023-07-30T10:08:36;2.92;;;2.63;;
10343;SDS011;5217;43.960;10.954;2023-07-30T10:11:07;3.38;;;2.67;;
10343;SDS011;5217;43.960;10.954;2023-07-30T10:13:37;3.20;;;2.40;;
10343;SDS011;5217;43.960;10.954;2023-07-30T10:16:09;3.75;;;2.80;;
10343;SDS011;5217;43.960;10.954;2023-07-30T10:18:39;3.70;;;2.60;;
10343;SDS011;5217;43.960;10.954;2023-07-30T10:21:09;4.22;;;2.50;;
10343;SDS011;5217;43.960;10.954;2023-07-30T10:23:50;4.85;;;2.78;;
10343;SDS011;5217;43.960;10.954;2023-07-30T10:26:29;2.80;;;2.60;;
10343;SDS011;5217;43.960;10.954;2023-07-30T10:31:48;3.65;;;2.72;;
10343;SDS011;5217;43.960;10.954;2023-07-30T10:34:20;6.40;;;2.70;;
10343;SDS011;5217;43.960;10.954;2023-07-30T10:36:49;4.90;;;2.97;;
10343;SDS011;5217;43.960;10.954;2023-07-30T10:39:19;3.50;;;2.80;;
10343;SDS011;5217;43.960;10.954;2023-07-30T10:41:49;4.13;;;2.90;;
10343;SDS011;5217;43.960;10.954;2023-07-30T10:44:19;2.60;;;2.40;;
10343;SDS011;5217;43.960;10.954;2023-07-30T10:46:51;4.47;;;2.90;;
10343;SDS011;5217;43.960;10.954;2023-07-30T10:49:21;3.83;;;2.75;;
10343;SDS011;5217;43.960;10.954;2023-07-30T10:51:50;3.65;;;2.65;;
10343;SDS011;5217;43.960;10.954;2023-07-30T10:54:19;9.85;;;3.28;;
10343;SDS011;5217;43.960;10.954;2023-07-30T10:56:48;4.50;;;2.90;;
10343;SDS011;5217;43.960;10.954;2023-07-30T10:59:17;4.90;;;2.85;;
10343;SDS011;5217;43.960;10.954;2023-07-30T11:01:46;3.22;;;2.63;;
10343;SDS011;5217;43.960;10.954;2023-07-30T11:04:15;3.08;;;2.53;;
10343;SDS011;5217;43.960;10.954;2023-07-30T11:06:46;4.25;;;3.03;;
10343;SDS011;5217;43.960;10.954;2023-07-30T11:09:19;4.25;;;2.75;;
10343;SDS011;5217;43.960;10.954;2023-07-30T11:11:48;3.35;;;2.75;;
10343;SDS011;5217;43.960;10.954;2023-07-30T11:14:18;4.25;;;2.55;;
10343;SDS011;5217;43.960;10.954;2023-07-30T11:16:48;5.15;;;2.65;;
10343;SDS011;5217;43.960;10.954;2023-07-30T11:19:17;4.55;;;2.33;;
10343;SDS011;5217;43.960;10.954;2023-07-30T11:21:48;4.57;;;2.72;;
10343;SDS011;5217;43.960;10.954;2023-07-30T11:24:20;5.68;;;2.50;;
10343;SDS011;5217;43.960;10.954;2023-07-30T11:26:56;4.25;;;2.38;;
10343;SDS011;5217;43.960;10.954;2023-07-30T11:29:25;4.63;;;2.55;;
10343;SDS011;5217;43.960;10.954;2023-07-30T11:31:55;3.33;;;2.30;;
10343;SDS011;5217;43.960;10.954;2023-07-30T11:34:25;5.60;;;2.60;;
10343;SDS011;5217;43.960;10.954;2023-07-30T11:36:56;5.03;;;2.47;;
10343;SDS011;5217;43.960;10.954;2023-07-30T11:39:26;2.88;;;2.00;;
10343;SDS011;5217;43.960;10.954;2023-07-30T11:41:55;5.70;;;2.95;;
10343;SDS011;5217;43.960;10.954;2023-07-30T11:44:30;2.88;;;2.40;;
10343;SDS011;5217;43.960;10.954;2023-07-30T11:46:59;2.58;;;2.20;;
10343;SDS011;5217;43.960;10.954;2023-07-30T11:49:27;4.40;;;2.30;;
10343;SDS011;5217;43.960;10.954;2023-07-30T11:52:05;5.63;;;2.70;;
10343;SDS011;5217;43.960;10.954;2023-07-30T11:54:34;5.43;;;2.45;;
10343;SDS011;5217;43.960;10.954;2023-07-30T11:57:02;3.88;;;2.38;;
10343;SDS011;5217;43.960;10.954;2023-07-30T11:59:31;4.15;;;2.42;;
10343;SDS011;5217;43.960;10.954;2023-07-30T12:02:00;4.22;;;2.35;;
10343;SDS011;5217;43.960;10.954;2023-07-30T12:04:30;4.93;;;2.45;;
10343;SDS011;5217;43.960;10.954;2023-07-30T12:07:11;3.50;;;2.47;;
10343;SDS011;5217;43.960;10.954;2023-07-30T12:09:50;3.55;;;2.50;;
10343;SDS011;5217;43.960;10.954;2023-07-30T12:12:18;3.00;;;2.60;;
10343;SDS011;5217;43.960;10.954;2023-07-30T12:14:53;3.33;;;2.17;;
10343;SDS011;5217;43.960;10.954;2023-07-30T12:17:21;2.90;;;2.30;;
10343;SDS011;5217;43.960;10.954;2023-07-30T12:19:50;4.75;;;2.30;;
10343;SDS011;5217;43.960;10.954;2023-07-30T12:22:20;3.33;;;2.40;;
10343;SDS011;5217;43.960;10.954;2023-07-30T12:24:48;5.13;;;2.50;;
10343;SDS011;5217;43.960;10.954;2023-07-30T12:27:17;3.10;;;2.03;;
10343;SDS011;5217;43.960;10.954;2023-07-30T12:29:46;2.90;;;2.10;;
10343;SDS011;5217;43.960;10.954;2023-07-30T12:32:14;3.53;;;2.33;;
10343;SDS011;5217;43.960;10.954;2023-07-30T12:34:43;2.63;;;2.10;;
10343;SDS011;5217;43.960;10.954;2023-07-30T12:37:12;3.25;;;2.17;;
10343;SDS011;5217;43.960;10.954;2023-07-30T12:39:56;2.92;;;2.20;;
10343;SDS011;5217;43.960;10.954;2023-07-30T12:42:26;3.92;;;2.40;;
10343;SDS011;5217;43.960;10.954;2023-07-30T12:44:54;3.03;;;2.33;;
10343;SDS011;5217;43.960;10.954;2023-07-30T12:47:23;3.70;;;2.45;;
10343;SDS011;5217;43.960;10.954;2023-07-30T12:49:52;3.65;;;2.10;;
10343;SDS011;5217;43.960;10.954;2023-07-30T12:52:20;2.83;;;2.10;;
10343;SDS011;5217;43.960;10.954;2023-07-30T12:54:49;3.90;;;2.25;;
10343;SDS011;5217;43.960;10.954;2023-07-30T12:57:19;3.70;;;2.40;;
10343;SDS011;5217;43.960;10.954;2023-07-30T12:59:47;4.43;;;2.40;;
10343;SDS011;5217;43.960;10.954;2023-07-30T13:02:16;3.53;;;2.42;;
10343;SDS011;5217;43.960;10.954;2023-07-30T13:04:44;2.35;;;2.08;;
10343;SDS011;5217;43.960;10.954;2023-07-30T13:07:13;3.88;;;2.20;;
10343;SDS011;5217;43.960;10.954;2023-07-30T13:09:41;3.53;;;2.22;;
10343;SDS011;5217;43.960;10.954;2023-07-30T13:12:10;3.20;;;2.25;;
10343;SDS011;5217;43.960;10.954;2023-07-30T13:14:40;2.28;;;2.00;;
10343;SDS011;5217;43.960;10.954;2023-07-30T13:17:08;2.88;;;2.10;;
10343;SDS011;5217;43.960;10.954;2023-07-30T13:19:36;2.47;;;2.28;;
10343;SDS011;5217;43.960;10.954;2023-07-30T13:22:05;3.35;;;2.50;;
10343;SDS011;5217;43.960;10.954;2023-07-30T13:24:33;3.42;;;2.40;;
10343;SDS011;5217;43.960;10.954;2023-07-30T13:27:03;3.38;;;2.30;;
10343;SDS011;5217;43.960;10.954;2023-07-30T13:29:31;2.92;;;2.05;;
10343;SDS011;5217;43.960;10.954;2023-07-30T13:32:01;2.40;;;2.05;;
10343;SDS011;5217;43.960;10.954;2023-07-30T13:34:31;4.00;;;2.28;;
10343;SDS011;5217;43.960;10.954;2023-07-30T13:36:59;3.55;;;1.98;;
10343;SDS011;5217;43.960;10.954;2023-07-30T13:39:28;3.35;;;2.40;;
10343;SDS011;5217;43.960;10.954;2023-07-30T13:41:59;2.50;;;1.90;;
10343;SDS011;5217;43.960;10.954;2023-07-30T13:44:28;4.05;;;2.00;;
10343;SDS011;5217;43.960;10.954;2023-07-30T13:46:56;5.22;;;2.33;;
10343;SDS011;5217;43.960;10.954;2023-07-30T13:49:26;4.05;;;2.55;;
10343;SDS011;5217;43.960;10.954;2023-07-30T13:51:54;2.88;;;2.20;;
10343;SDS011;5217;43.960;10.954;2023-07-30T13:54:23;5.80;;;2.47;;
10343;SDS011;5217;43.960;10.954;2023-07-30T13:56:51;5.25;;;2.45;;
10343;SDS011;5217;43.960;10.954;2023-07-30T13:59:20;4.30;;;2.50;;
10343;SDS011;5217;43.960;10.954;2023-07-30T14:01:48;4.85;;;2.17;;
10343;SDS011;5217;43.960;10.954;2023-07-30T14:04:18;3.15;;;2.25;;
10343;SDS011;5217;43.960;10.954;2023-07-30T14:06:48;8.00;;;2.92;;
10343;SDS011;5217;43.960;10.954;2023-07-30T14:09:17;3.58;;;2.20;;
10343;SDS011;5217;43.960;10.954;2023-07-30T14:11:46;3.08;;;2.42;;
10343;SDS011;5217;43.960;10.954;2023-07-30T14:14:14;4.22;;;2.47;;
10343;SDS011;5217;43.960;10.954;2023-07-30T14:16:43;2.78;;;2.20;;
10343;SDS011;5217;43.960;10.954;2023-07-30T14:19:13;2.33;;;2.00;;
10343;SDS011;5217;43.960;10.954;2023-07-30T14:21:42;4.60;;;2.42;;
10343;SDS011;5217;43.960;10.954;2023-07-30T14:24:11;2.50;;;2.10;;
10343;SDS011;5217;43.960;10.954;2023-07-30T14:26:40;3.38;;;2.33;;
10343;SDS011;5217;43.960;10.954;2023-07-30T14:29:09;5.50;;;2.10;;
10343;SDS011;5217;43.960;10.954;2023-07-30T14:31:37;3.67;;;2.35;;
10343;SDS011;5217;43.960;10.954;2023-07-30T14:34:06;2.67;;;2.08;;
10343;SDS011;5217;43.960;10.954;2023-07-30T14:36:35;4.20;;;2.10;;
10343;SDS011;5217;43.960;10.954;2023-07-30T14:39:03;3.60;;;2.65;;
10343;SDS011;5217;43.960;10.954;2023-07-30T14:41:33;4.95;;;2.22;;
10343;SDS011;5217;43.960;10.954;2023-07-30T14:44:02;2.85;;;2.20;;
10343;SDS011;5217;43.960;10.954;2023-07-30T14:46:32;6.38;;;2.47;;
10343;SDS011;5217;43.960;10.954;2023-07-30T14:49:00;3.60;;;2.40;;
10343;SDS011;5217;43.960;10.954;2023-07-30T14:51:30;2.30;;;2.00;;
10343;SDS011;5217;43.960;10.954;2023-07-30T14:53:59;5.13;;;2.50;;
10343;SDS011;5217;43.960;10.954;2023-07-30T14:56:27;5.38;;;2.22;;
10343;SDS011;5217;43.960;10.954;2023-07-30T14:58:58;3.22;;;2.17;;
10343;SDS011;5217;43.960;10.954;2023-07-30T15:01:28;4.43;;;2.63;;
10343;SDS011;5217;43.960;10.954;2023-07-30T15:03:57;3.42;;;2.45;;